EDT,Max TemperatureF,Mean TemperatureF,Min TemperatureF,Max Dew PointF,MeanDew PointF,Min DewpointF,Max Humidity, Mean Humidity, Min Humidity, Max Sea Level PressureIn, Mean Sea Level PressureIn, Min Sea Level PressureIn, Max VisibilityMiles, Mean VisibilityMiles, Min VisibilityMiles, Max Wind SpeedMPH, Mean Wind SpeedMPH, Max Gust SpeedMPH,PrecipitationIn, CloudCover, Events, WindDirDegrees
2013-5-1,66,54,41,48,41,28,82,59,42,30.36,30.12,29.83,10,10,10,18,9,28,0.00,2,,8
2013-5-2,48,40,33,34,30,28,87,71,57,30.36,30.32,30.27,10,10,4,20,14,29,0.08,7,Thunderstorm,350
2013-5-3,51,42,33,37,32,28,87,74,58,30.27,30.19,30.14,10,10,8,16,11,24,0.01,7,,357
2013-5-4,69,53,37,46,38,32,87,66,40,30.15,30.13,30.08,10,10,8,13,8,18,0.03,1,,23
2013-5-5,69,53,37,43,36,32,87,60,28,30.16,30.13,30.07,10,10,7,10,6,16,0.00,0,,44
2013-5-6,69,53,37,43,35,30,87,55,26,30.14,30.08,30.01,10,10,5,10,6,,0.01,0,,45
2013-5-7,69,52,37,41,36,30,87,52,24,30.11,30.06,30.02,10,10,10,10,3,,0.00,0,,106
2013-5-8,69,53,37,43,37,32,87,57,33,30.05,30.01,29.97,10,10,10,12,3,,0.00,1,,161
2013-5-9,60,48,37,43,36,30,81,59,48,30.11,30.03,29.96,10,10,10,18,8,28,0.00,3,,4
2013-5-10,50,42,33,36,31,28,87,70,46,30.09,30.02,29.95,10,10,5,16,10,25,0.04,6,,28
2013-5-11,46,38,30,37,29,23,93,73,40,29.95,29.82,29.76,10,9,3,22,6,31,0.12,6,,304
2013-5-12,42,35,28,28,22,16,81,58,39,30.09,29.99,29.84,10,10,5,21,13,34,0.00,6,,320
2013-5-13,50,37,26,30,22,18,80,54,32,30.14,30.08,29.97,10,10,10,20,8,26,0.00,1,,244
2013-5-14,55,48,41,39,35,30,81,64,50,29.97,29.77,29.54,10,10,8,15,9,22,0.01,2,,134
2013-5-15,78,58,39,45,37,27,87,46,16,29.76,29.65,29.47,10,10,5,22,9,32,0.00,0,,302
2013-5-16,66,55,44,39,36,34,66,49,34,30.11,29.94,29.75,10,10,10,15,7,24,0.00,0,,3
2013-5-17,55,48,41,41,37,32,81,66,54,30.20,30.15,30.10,10,10,10,10,5,,0.00,2,,83
2013-5-18,60,51,42,46,43,37,87,72,55,30.17,30.10,29.99,10,10,10,16,4,18,0.03,6,,99
2013-5-19,66,58,50,52,47,43,82,71,59,29.99,29.92,29.85,10,10,8,13,4,,0.00,1,,125
2013-5-20,64,58,51,57,52,46,88,81,68,29.84,29.76,29.70,10,6,2,17,9,21,0.04,4,Thunderstorm,94
2013-5-21,57,54,51,54,50,46,94,88,77,29.74,29.68,29.65,10,5,0,14,8,21,0.15,8,,89
2013-5-22,55,52,48,52,47,45,94,84,72,29.86,29.75,29.70,10,6,0,14,6,23,0.05,8,,2
2013-5-23,50,44,39,45,30,21,87,62,37,30.32,30.12,29.87,10,10,10,21,13,37,0.06,3,,352
2013-5-24,55,44,32,39,31,27,87,61,38,30.44,30.38,30.32,10,10,10,13,5,,0.00,0,,35
2013-5-25,57,44,32,37,32,28,93,59,33,30.46,30.39,30.33,10,10,7,12,4,,0.00,0,,172
2013-5-26,62,48,33,39,33,27,87,58,27,30.39,30.32,30.23,10,10,10,12,3,,0.00,0,,155
2013-5-27,64,48,33,43,37,30,93,59,34,30.24,30.13,29.97,10,10,4,14,4,18,0.00,0,,110
2013-5-28,55,53,51,48,44,37,88,73,51,29.97,29.85,29.74,10,8,1,13,6,,0.00,8,,88
2013-5-29,66,58,51,57,52,48,94,82,68,29.88,29.84,29.77,10,7,0,17,5,24,0.00,6,,197
2013-5-30,69,61,53,59,54,48,94,78,64,29.89,29.84,29.78,10,8,3,15,6,22,0.00,2,,152
2013-5-31,69,60,53,57,54,50,88,80,68,29.80,29.75,29.69,10,10,7,15,9,23,0.00,3,,180